Latest Weather Observations for Middle Point

IDD60801

Issued at 10:01 am CST Friday 27 May 2016 (issued every 30 minutes, with the page automatically refreshed every 10 minutes)

About weather observations | Map of weather stations | Latest weather observations for NT | Other Formats
Station Details ID: 014041 Name: MIDDLE POINT Lat: -12.61 Lon: 131.30 Height: 14.1 m
Data from the previous 72 hours. | See also: Recent months at Middle Point
Date/Time
CST
Temp
°C
App
Temp
°C
Dew
Point
Rel
Hum
%
Delta-T
°C
Wind Press
QNH
hPa
Press
MSL
hPa
Rain
since 9 am
mm
Dir
 
Spd
km/h
Gust
km/h
Spd
kts
Gust
kts
27/10:00am 30.1 34.2 23.3 67 4.7 WSW 7 15 4 8 1014.8 1014.7 0.0
27/09:30am 28.7 33.4 24.0 76 3.3 SW 6 7 3 4 1014.8 1014.7 0.0
27/09:00am 27.2 32.5 24.3 84 2.0 SSW 4 7 2 4 1014.7 1014.6 0.0
27/08:30am 25.9 31.4 23.4 86 1.7 CALM 0 0 0 0 1014.3 1014.2 0.0
27/08:00am 23.5 28.3 22.1 92 0.9 CALM 0 0 0 0 1013.9 1013.8 0.0
27/07:30am 21.6 25.0 20.2 92 0.9 ENE 2 2 1 1 1013.7 1013.6 0.0
27/07:00am 22.0 25.0 20.8 93 0.8 ENE 6 6 3 3 1013.5 1013.4 0.0
27/06:30am 21.8 24.6 20.4 92 0.9 ESE 6 7 3 4 1013.1 1013.0 0.0
27/06:00am 22.2 25.5 20.8 92 0.9 SW 4 6 2 3 1012.7 1012.6 0.0
27/05:30am 21.3 23.8 19.9 92 0.9 WNW 6 6 3 3 1012.5 1012.4 0.0
27/05:00am 21.3 24.2 19.9 92 0.9 WSW 4 6 2 3 1012.5 1012.4 0.0
27/04:30am 21.6 24.7 20.2 92 0.9 WSW 4 4 2 2 1012.4 1012.3 0.0
27/04:00am 22.6 27.0 21.4 93 0.8 CALM 0 0 0 0 1012.4 1012.3 0.0
27/03:30am 21.7 24.2 20.2 91 1.0 W 7 9 4 5 1012.3 1012.2 0.0
27/03:00am 21.8 24.9 20.3 91 1.0 NW 4 6 2 3 1012.5 1012.4 0.0
27/02:30am 22.2 25.9 20.7 91 1.0 NNW 2 2 1 1 1012.6 1012.5 0.0
27/02:00am 22.5 26.2 20.8 90 1.1 NNW 2 2 1 1 1012.7 1012.6 0.0
27/01:30am 22.8 26.3 21.1 90 1.1 NNW 4 4 2 2 1012.8 1012.7 0.0
27/01:00am 23.1 26.7 21.2 89 1.2 N 4 4 2 2 1012.9 1012.8 0.0
27/12:30am 23.4 26.7 21.5 89 1.3 N 6 6 3 3 1013.0 1012.9 0.0
27/12:00am 24.4 29.2 22.1 87 1.5 CALM 0 2 0 1 1013.1 1013.0 0.0
 
Date/Time
CST
Temp
°C
App
Temp
°C
Dew
Point
Rel
Hum
%
Delta-T
°C
Wind Press
QNH
hPa
Press
MSL
hPa
Rain
since 9 am
mm
Dir
 
Spd
km/h
Gust
km/h
Spd
kts
Gust
kts
26/11:30pm 24.4 28.1 22.3 88 1.4 WNW 6 6 3 3 1013.0 1012.9 0.0
26/11:00pm 24.2 28.2 22.1 88 1.4 W 4 4 2 2 1013.1 1013.0 0.0
26/10:30pm 24.3 28.3 22.0 87 1.5 WNW 4 4 2 2 1013.2 1013.1 0.0
26/10:00pm 24.9 29.0 22.2 85 1.8 WNW 4 4 2 2 1013.0 1012.9 0.0
26/09:30pm 24.7 28.5 21.6 83 2.1 NNW 4 6 2 3 1012.9 1012.8 0.0
26/09:00pm 25.9 30.0 22.2 80 2.5 WNW 4 6 2 3 1012.6 1012.5 0.0
26/08:30pm 26.3 29.9 22.4 79 2.6 NW 7 9 4 5 1012.4 1012.3 0.0
26/08:00pm 27.1 30.5 22.7 77 3.0 NW 9 13 5 7 1012.0 1011.9 0.0
26/07:30pm 27.4 31.0 23.0 77 3.0 NW 9 11 5 6 1011.6 1011.5 0.0
26/07:00pm 27.4 30.6 22.4 74 3.4 NNW 9 11 5 6 1011.4 1011.3 0.0
26/06:30pm 28.8 31.8 20.8 62 5.3 NNW 6 13 3 7 1010.9 1010.8 0.0
26/06:00pm 32.5 35.5 20.1 48 8.2 N 4 4 2 2 1010.5 1010.5 0.0
26/05:30pm 33.9 36.5 19.2 42 9.7 NW 4 6 2 3 1010.3 1010.3 0.0
26/05:00pm 34.4 35.9 17.6 37 10.8 NW 6 7 3 4 1010.2 1010.2 0.0
26/04:30pm 34.8 35.9 17.1 35 11.4 N 7 15 4 8 1010.3 1010.3 0.0
26/04:00pm 34.0 35.2 16.8 35 11.0 E 6 9 3 5 1010.4 1010.4 0.0
26/03:30pm 34.3 35.2 17.5 36 10.8 E 9 13 5 7 1010.7 1010.7 0.0
26/03:00pm 34.3 35.8 16.6 34 11.3 SE 4 11 2 6 1010.7 1010.7 0.0
26/02:30pm 34.4 35.5 17.2 36 11.0 ESE 7 13 4 7 1011.0 1010.9 0.0
26/02:00pm 34.6 35.8 16.9 35 11.3 ENE 6 13 3 7 1011.5 1011.4 0.0
26/01:30pm 32.8 34.1 17.0 38 10.1 ENE 6 13 3 7 1012.0 1011.9 0.0
26/01:00pm 34.1 36.9 19.7 42 9.5 N 4 9 2 5 1012.5 1012.4 0.0
26/12:30pm 33.4 35.9 19.8 44 9.0 SW 6 11 3 6 1013.1 1013.0 0.0
26/12:00pm 33.3 36.8 21.1 48 8.2 SSE 4 7 2 4 1013.5 1013.4 0.0
26/11:30am 32.3 36.5 21.8 54 7.1 NE 2 9 1 5 1014.0 1013.9 0.0
26/11:00am 31.7 35.0 21.5 54 6.9 NNW 6 11 3 6 1014.4 1014.3 0.0
26/10:30am 30.1 35.3 22.8 65 5.0 CALM 0 4 0 2 1014.5 1014.4 0.0
26/10:00am 29.7 35.3 24.8 75 3.4 S 4 7 2 4 1014.6 1014.5 0.0
26/09:30am 28.5 33.5 24.5 79 2.8 SSE 6 9 3 5 1014.6 1014.5 0.0
26/09:00am 27.3 32.6 24.4 84 2.0 SE 4 9 2 5 1014.3 1014.2 0.0
26/08:30am 25.8 31.6 24.0 90 1.2 CALM 0 0 0 0 1014.0 1013.9 0.0
26/08:00am 23.4 28.3 22.4 94 0.7 CALM 0 0 0 0 1013.5 1013.4 0.0
26/07:30am 21.6 25.6 20.6 94 0.6 CALM 0 0 0 0 1013.2 1013.1 0.0
26/07:00am 21.5 24.8 20.0 91 1.0 E 2 4 1 2 1013.0 1012.9 0.0
26/06:30am 21.7 25.5 20.2 91 1.0 CALM 0 0 0 0 1012.7 1012.6 0.0
26/06:00am 22.5 26.8 21.1 92 0.9 CALM 0 0 0 0 1012.5 1012.4 0.0
26/05:30am 22.2 26.3 20.7 91 1.0 CALM 0 0 0 0 1012.4 1012.3 0.0
26/05:00am 21.9 25.8 20.4 91 1.0 CALM 0 0 0 0 1012.2 1012.1 0.0
26/04:30am 22.3 26.4 20.8 91 1.0 CALM 0 0 0 0 1012.1 1012.0 0.0
26/04:00am 22.5 26.6 20.8 90 1.1 CALM 0 0 0 0 1012.0 1011.9 0.0
26/03:30am 22.7 26.8 20.8 89 1.2 CALM 0 0 0 0 1012.1 1012.0 0.0
26/03:00am 23.5 28.0 21.6 89 1.3 CALM 0 0 0 0 1012.3 1012.2 0.0
26/02:30am 23.8 28.6 22.1 90 1.1 CALM 0 0 0 0 1012.6 1012.5 0.0
26/02:00am 23.2 27.7 21.5 90 1.1 CALM 0 0 0 0 1012.6 1012.5 0.0
26/01:30am 23.6 28.2 21.7 89 1.3 CALM 0 0 0 0 1012.5 1012.4 0.0
26/01:00am 24.0 28.3 21.9 88 1.4 WNW 2 2 1 1 1012.6 1012.5 0.0
26/12:30am 24.3 28.8 22.2 88 1.4 WNW 2 4 1 2 1012.7 1012.6 0.0
26/12:00am 24.3 28.4 22.2 88 1.4 WNW 4 6 2 3 1012.8 1012.7 0.0
 
Date/Time
CST
Temp
°C
App
Temp
°C
Dew
Point
Rel
Hum
%
Delta-T
°C
Wind Press
QNH
hPa
Press
MSL
hPa
Rain
since 9 am
mm
Dir
 
Spd
km/h
Gust
km/h
Spd
kts
Gust
kts
25/11:30pm 24.0 27.5 21.9 88 1.4 W 6 6 3 3 1012.9 1012.8 0.0
25/11:00pm 24.1 28.1 22.0 88 1.4 WNW 4 4 2 2 1013.0 1012.9 0.0
25/10:30pm 24.3 28.5 21.8 86 1.7 WSW 2 2 1 1 1013.0 1012.9 0.0
25/10:00pm 25.2 28.9 22.5 85 1.8 S 7 9 4 5 1013.0 1012.9 0.0
25/09:30pm 25.2 29.3 22.3 84 1.9 WSW 4 6 2 3 1012.7 1012.6 0.0
25/09:00pm 25.4 29.5 22.3 83 2.1 NNW 4 6 2 3 1012.3 1012.2 0.0
25/08:30pm 25.8 29.7 22.5 82 2.2 N 6 6 3 3 1011.9 1011.8 0.0
25/08:00pm 26.2 30.4 22.5 80 2.5 NNW 4 6 2 3 1011.6 1011.5 0.0
25/07:30pm 26.8 30.6 22.8 79 2.7 N 7 9 4 5 1011.4 1011.3 0.0
25/07:00pm 27.2 31.3 23.0 78 2.9 N 6 7 3 4 1011.0 1010.9 0.0
25/06:30pm 28.5 32.5 22.7 71 3.9 NNW 6 6 3 3 1010.6 1010.6 0.0
25/06:00pm 30.3 33.7 22.7 64 5.2 N 9 13 5 7 1010.2 1010.2 0.0
25/05:30pm 31.0 33.0 22.3 60 5.9 N 15 20 8 11 1009.8 1009.8 0.0
25/05:00pm 32.5 33.8 22.3 55 7.0 N 19 26 10 14 1009.5 1009.5 0.0
25/04:30pm 33.7 35.4 20.1 44 9.1 N 11 17 6 9 1009.1 1009.1 0.0
25/04:00pm 34.9 36.4 15.7 31 12.1 ESE 2 9 1 5 1009.1 1009.1 0.0
25/03:30pm 34.7 35.6 16.1 33 11.8 E 6 11 3 6 1009.3 1009.3 0.0
25/03:00pm 35.0 36.2 15.8 31 12.1 E 4 9 2 5 1009.4 1009.4 0.0
25/02:30pm 34.4 35.4 16.3 34 11.5 SE 6 9 3 5 1009.6 1009.6 0.0
25/02:00pm 34.2 36.9 20.2 43 9.3 ENE 6 9 3 5 1010.1 1010.1 0.0
25/01:30pm 34.0 37.5 21.8 49 8.3 SE 6 9 3 5 1010.6 1010.6 0.0
25/01:00pm 33.5 36.7 21.3 48 8.2 ENE 6 11 3 6 1011.2 1011.1 0.0
25/12:30pm 32.4 36.1 22.2 55 7.0 S 6 9 3 5 1011.7 1011.6 0.0
25/12:00pm 32.9 37.4 23.0 56 6.8 SE 4 9 2 5 1012.1 1012.0 0.0
25/11:30am 32.5 37.1 23.2 58 6.4 SSW 4 6 2 3 1012.6 1012.5 0.0
25/11:00am 30.6 35.3 22.7 62 5.4 NNW 2 6 1 3 1013.0 1012.9 0.0
25/10:30am 31.0 35.8 22.9 62 5.6 N 2 6 1 3 1013.3 1013.2 0.0
25/10:00am 29.9 34.8 23.6 69 4.3 ENE 4 9 2 5 1013.5 1013.4 0.0
25/09:30am 28.9 33.9 23.8 74 3.5 SE 4 7 2 4 1013.5 1013.4 0.0
25/09:00am 28.2 33.5 24.4 80 2.6 ENE 4 9 2 5 1013.4 1013.3 0.0
25/08:30am 26.0 31.7 23.7 87 1.6 CALM 0 2 0 1 1013.2 1013.1 0.0
25/08:00am 24.1 29.1 22.5 91 1.1 CALM 0 0 0 0 1013.0 1012.9 0.0
25/07:30am 22.4 25.8 21.0 92 0.9 NNW 4 4 2 2 1012.6 1012.5 0.0
25/07:00am 21.7 25.1 20.2 91 1.0 NNW 2 6 1 3 1012.4 1012.3 0.0
25/06:30am 22.6 26.9 21.2 92 0.9 CALM 0 0 0 0 1012.3 1012.2 0.0
25/06:00am 22.4 26.6 21.0 92 0.9 CALM 0 0 0 0 1012.0 1011.9 0.0
25/05:30am 22.5 26.7 21.0 91 1.0 CALM 0 0 0 0 1011.6 1011.5 0.0
25/05:00am 23.1 27.6 21.5 91 1.1 CALM 0 0 0 0 1011.4 1011.3 0.0
25/04:30am 23.3 27.1 21.7 91 1.1 N 4 6 2 3 1011.5 1011.4 0.0
25/04:00am 23.5 26.6 22.1 92 0.9 NE 9 15 5 8 1011.5 1011.4 0.0
25/03:30am 23.5 27.3 21.6 89 1.3 ESE 4 4 2 2 1011.3 1011.2 0.0
25/03:00am 24.2 29.1 22.3 89 1.3 CALM 0 2 0 1 1011.5 1011.4 0.0
25/02:30am 23.9 28.0 22.2 90 1.1 NW 4 4 2 2 1011.6 1011.5 0.0
25/02:00am 23.8 28.5 21.9 89 1.3 CALM 0 0 0 0 1011.9 1011.8 0.0
25/01:30am 24.1 28.9 22.2 89 1.3 CALM 0 0 0 0 1012.0 1011.9 0.0
25/01:00am 24.1 28.1 22.0 88 1.4 WNW 4 6 2 3 1012.1 1012.0 0.0
25/12:30am 24.1 28.2 22.2 89 1.3 NNW 4 6 2 3 1012.3 1012.2 0.0
25/12:00am 24.6 29.5 22.3 87 1.5 CALM 0 0 0 0 1012.5 1012.4 0.0
 
Date/Time
CST
Temp
°C
App
Temp
°C
Dew
Point
Rel
Hum
%
Delta-T
°C
Wind Press
QNH
hPa
Press
MSL
hPa
Rain
since 9 am
mm
Dir
 
Spd
km/h
Gust
km/h
Spd
kts
Gust
kts
24/11:30pm 25.1 29.9 22.2 84 1.9 CALM 0 0 0 0 1012.6 1012.5 0.0
24/11:00pm 25.6 30.7 22.7 84 2.0 CALM 0 0 0 0 1012.6 1012.5 0.0
24/10:30pm 25.7 30.8 22.6 83 2.1 CALM 0 0 0 0 1012.6 1012.5 0.0
24/10:00pm 25.3 29.3 22.0 82 2.2 N 4 6 2 3 1012.5 1012.4 0.0
24/09:30pm 25.6 29.3 22.3 82 2.2 NW 6 7 3 4 1012.3 1012.2 0.0
24/09:00pm 25.4 28.4 21.9 81 2.3 WNW 9 9 5 5 1012.0 1011.9 0.0
24/08:30pm 26.0 29.5 22.1 79 2.6 NW 7 9 4 5 1011.7 1011.6 0.0
24/08:00pm 26.0 29.6 22.1 79 2.6 NW 6 7 3 4 1011.3 1011.2 0.0
24/07:30pm 27.2 30.9 22.2 74 3.4 NNW 6 7 3 4 1011.1 1011.0 0.0
24/07:00pm 28.1 31.7 22.3 70 3.9 NNW 7 9 4 5 1010.5 1010.5 0.0
24/06:30pm 29.3 32.3 22.0 64 4.9 NNW 9 13 5 7 1010.1 1010.1 0.0
24/06:00pm 32.4 36.2 21.6 53 7.3 NW 4 6 2 3 1009.7 1009.7 0.0
24/05:30pm 33.7 36.1 19.7 43 9.3 NW 6 7 3 4 1009.4 1009.4 0.0
24/05:00pm 34.5 36.9 18.9 39 10.2 NW 4 6 2 3 1009.3 1009.3 0.0
24/04:30pm 34.7 36.7 18.7 38 10.5 NW 6 9 3 5 1009.3 1009.3 0.0
24/04:00pm 34.9 37.0 18.9 39 10.5 NW 6 11 3 6 1009.3 1009.3 0.0
24/03:30pm 34.5 36.6 18.1 37 10.7 ESE 4 6 2 3 1009.4 1009.4 0.0
24/03:00pm 34.0 35.9 18.5 40 10.1 SE 6 7 3 4 1009.7 1009.7 0.0
24/02:30pm 34.7 36.5 18.7 38 10.5 N 7 13 4 7 1010.1 1010.1 0.0
24/02:00pm 34.5 36.4 18.5 38 10.4 N 6 13 3 7 1010.5 1010.5 0.0
24/01:30pm 34.4 36.2 19.6 41 9.8 NNW 9 17 5 9 1011.2 1011.1 0.0
24/01:00pm 34.0 35.4 19.6 42 9.5 N 11 15 6 8 1011.8 1011.7 0.0
24/12:30pm 33.9 35.9 19.9 43 9.3 NE 9 19 5 10 1012.4 1012.3 0.0
24/12:00pm 33.1 35.3 20.3 47 8.5 NNE 9 17 5 9 1012.7 1012.6 0.0
24/11:30am 31.7 34.2 20.3 50 7.6 NE 7 13 4 7 1013.2 1013.1 0.0
24/11:00am 32.2 35.0 20.8 51 7.6 N 7 13 4 7 1013.6 1013.5 0.0
24/10:30am 30.9 33.8 21.1 56 6.6 N 7 11 4 6 1013.8 1013.7 0.0

Other Formats:

Comma delimited format used in spreadsheet applications
http://www.bom.gov.au/fwo/IDD60801/IDD60801.95121.axf

JavaScript Object Notation format (JSON) in row-major order
http://www.bom.gov.au/fwo/IDD60801/IDD60801.95121.json